Wilbur Observed Data For Previous 48 Hours

Caption
Day and Hour Reservoir Elevation (behind dam)* Tailwater Elevation (below dam)* Average Hourly Discharge*
2/19/2018 2 AM EST 1,648.53 1,585.16 1,352
2/19/2018 3 AM EST 1,648.48 1,585.19 1,359
2/19/2018 4 AM EST 1,648.43 1,585.20 1,358
2/19/2018 5 AM EST 1,648.40 1,585.27 1,361
2/19/2018 6 AM EST 1,648.31 1,585.18 1,368
2/19/2018 7 AM EST 1,648.28 1,585.19 1,361
2/19/2018 8 AM EST 1,648.21 1,585.22 1,365
2/19/2018 9 AM EST 1,648.15 1,585.20 1,368
2/19/2018 10 AM EST 1,648.09 1,585.15 1,370
2/19/2018 11 AM EST 1,648.01 1,585.29 1,373
2/19/2018 12 PM EST 1,647.95 1,585.20 1,370
2/19/2018 1 PM EST 1,647.88 1,585.24 1,363
2/19/2018 2 PM EST 1,647.82 1,585.26 1,380
2/19/2018 3 PM EST 1,647.73 1,585.19 1,377
2/19/2018 4 PM EST 1,647.66 1,585.29 1,371
2/19/2018 5 PM EST 1,647.59 1,585.25 1,380
2/19/2018 6 PM EST 1,647.48 1,585.19 1,378
2/19/2018 7 PM EST 1,647.23 1,585.29 1,386
2/19/2018 8 PM EST 1,646.97 1,585.29 1,381
2/19/2018 9 PM EST 1,646.73 1,585.29 1,383
2/19/2018 10 PM EST 1,646.48 1,585.21 1,382
2/19/2018 11 PM EST 1,646.19 1,585.30 1,393
2/20/2018 12 AM EST 1,647.81 1,581.84 29
2/20/2018 1 AM EST 1,649.02 1,584.98 206
2/20/2018 2 AM EST 1,648.80 1,585.25 1,350
2/20/2018 3 AM EST 1,648.59 1,585.19 1,363
2/20/2018 4 AM EST 1,648.37 1,585.29 1,371
2/20/2018 5 AM EST 1,648.15 1,585.28 1,363
2/20/2018 6 AM EST 1,647.95 1,585.24 1,364
2/20/2018 7 AM EST 1,647.70 1,585.22 1,366
2/20/2018 8 AM EST 1,647.70 1,585.30 1,366
2/20/2018 9 AM EST 1,647.22 1,585.28 1,377
2/20/2018 10 AM EST 1,646.95 1,585.29 1,378
2/20/2018 11 AM EST 1,646.70 1,585.31 1,382
2/20/2018 12 PM EST 1,646.43 1,585.30 1,392
2/20/2018 1 PM EST 1,646.15 1,585.32 1,394
2/20/2018 2 PM EST 1,646.63 1,584.25 461
2/20/2018 3 PM EST 1,648.10 1,581.78 0
2/20/2018 4 PM EST 1,648.88 1,585.11 544
2/20/2018 5 PM EST 1,648.73 1,585.14 1,341
2/20/2018 6 PM EST 1,648.55 1,585.13 1,356
2/20/2018 7 PM EST 1,648.34 1,585.15 1,362
2/20/2018 8 PM EST 1,648.15 1,585.11 1,360
2/20/2018 9 PM EST 1,647.96 1,585.15 1,356
2/20/2018 10 PM EST 1,647.76 1,585.18 1,357
2/20/2018 11 PM EST 1,647.55 1,585.18 1,366
2/21/2018 12 AM EST 1,647.33 1,585.17 1,366

Elevations are in feet above sea level. Discharges are in cubic feet per second and are reported at the end of the hour.